sensor_id;sensor_type;location;lat;lon;timestamp;temperature;humidity
67157;SHT31;54086;50.126;8.710;2022-09-20T00:01:09;12.38;79.47
67157;SHT31;54086;50.126;8.710;2022-09-20T00:03:37;12.37;79.63
67157;SHT31;54086;50.126;8.710;2022-09-20T00:06:04;12.30;79.91
67157;SHT31;54086;50.126;8.710;2022-09-20T00:08:30;12.25;80.10
67157;SHT31;54086;50.126;8.710;2022-09-20T00:11:07;12.22;80.23
67157;SHT31;54086;50.126;8.710;2022-09-20T00:13:34;12.16;80.45
67157;SHT31;54086;50.126;8.710;2022-09-20T00:16:07;12.12;80.69
67157;SHT31;54086;50.126;8.710;2022-09-20T00:18:32;12.19;80.57
67157;SHT31;54086;50.126;8.710;2022-09-20T00:20:58;12.12;80.66
67157;SHT31;54086;50.126;8.710;2022-09-20T00:23:23;12.05;80.65
67157;SHT31;54086;50.126;8.710;2022-09-20T00:25:56;12.00;81.04
67157;SHT31;54086;50.126;8.710;2022-09-20T00:28:22;12.05;81.02
67157;SHT31;54086;50.126;8.710;2022-09-20T00:30:48;11.96;81.10
67157;SHT31;54086;50.126;8.710;2022-09-20T00:33:14;11.92;81.05
67157;SHT31;54086;50.126;8.710;2022-09-20T00:35:42;11.93;81.15
67157;SHT31;54086;50.126;8.710;2022-09-20T00:38:08;11.92;81.00
67157;SHT31;54086;50.126;8.710;2022-09-20T00:40:33;11.90;81.16
67157;SHT31;54086;50.126;8.710;2022-09-20T00:42:59;11.79;81.28
67157;SHT31;54086;50.126;8.710;2022-09-20T00:45:26;11.77;81.66
67157;SHT31;54086;50.126;8.710;2022-09-20T00:53:14;11.71;81.99
67157;SHT31;54086;50.126;8.710;2022-09-20T00:55:48;11.64;82.53
67157;SHT31;54086;50.126;8.710;2022-09-20T00:58:14;11.67;82.36
67157;SHT31;54086;50.126;8.710;2022-09-20T01:00:42;11.67;82.36
67157;SHT31;54086;50.126;8.710;2022-09-20T01:03:10;11.64;82.54
67157;SHT31;54086;50.126;8.710;2022-09-20T01:05:37;11.72;82.24
67157;SHT31;54086;50.126;8.710;2022-09-20T01:08:03;11.72;82.14
67157;SHT31;54086;50.126;8.710;2022-09-20T01:10:30;11.69;82.15
67157;SHT31;54086;50.126;8.710;2022-09-20T01:12:56;11.71;82.11
67157;SHT31;54086;50.126;8.710;2022-09-20T01:15:23;11.69;82.09
67157;SHT31;54086;50.126;8.710;2022-09-20T01:17:51;11.67;82.32
67157;SHT31;54086;50.126;8.710;2022-09-20T01:20:19;11.58;82.38
67157;SHT31;54086;50.126;8.710;2022-09-20T01:23:15;11.54;82.60
67157;SHT31;54086;50.126;8.710;2022-09-20T01:26:19;11.51;82.49
67157;SHT31;54086;50.126;8.710;2022-09-20T01:31:55;11.44;82.66
67157;SHT31;54086;50.126;8.710;2022-09-20T01:34:34;11.32;82.79
67157;SHT31;54086;50.126;8.710;2022-09-20T01:37:12;11.34;82.94
67157;SHT31;54086;50.126;8.710;2022-09-20T01:42:26;11.48;82.34
67157;SHT31;54086;50.126;8.710;2022-09-20T01:50:32;11.35;82.44
67157;SHT31;54086;50.126;8.710;2022-09-20T02:26:06;11.10;83.84
67157;SHT31;54086;50.126;8.710;2022-09-20T02:29:01;11.09;83.93
67157;SHT31;54086;50.126;8.710;2022-09-20T02:31:54;11.06;84.13
67157;SHT31;54086;50.126;8.710;2022-09-20T02:37:27;10.95;84.42
67157;SHT31;54086;50.126;8.710;2022-09-20T02:42:37;10.96;84.59
67157;SHT31;54086;50.126;8.710;2022-09-20T02:45:12;10.97;84.55
67157;SHT31;54086;50.126;8.710;2022-09-20T02:47:43;10.92;84.70
67157;SHT31;54086;50.126;8.710;2022-09-20T02:50:55;10.86;84.82
67157;SHT31;54086;50.126;8.710;2022-09-20T03:00:03;10.79;84.83
67157;SHT31;54086;50.126;8.710;2022-09-20T03:05:08;10.65;85.24
67157;SHT31;54086;50.126;8.710;2022-09-20T03:08:03;10.69;85.22
67157;SHT31;54086;50.126;8.710;2022-09-20T03:13:27;10.75;84.99
67157;SHT31;54086;50.126;8.710;2022-09-20T03:16:21;10.76;84.84
67157;SHT31;54086;50.126;8.710;2022-09-20T03:21:32;10.84;84.69
67157;SHT31;54086;50.126;8.710;2022-09-20T03:24:18;10.73;84.98
67157;SHT31;54086;50.126;8.710;2022-09-20T03:26:52;10.69;84.92
67157;SHT31;54086;50.126;8.710;2022-09-20T03:32:54;10.69;84.68
67157;SHT31;54086;50.126;8.710;2022-09-20T03:36:27;10.65;84.73
67157;SHT31;54086;50.126;8.710;2022-09-20T03:41:45;10.69;84.63
67157;SHT31;54086;50.126;8.710;2022-09-20T03:53:12;10.70;84.27
67157;SHT31;54086;50.126;8.710;2022-09-20T04:14:43;10.53;83.19
67157;SHT31;54086;50.126;8.710;2022-09-20T04:19:47;10.53;82.73
67157;SHT31;54086;50.126;8.710;2022-09-20T04:22:15;10.52;82.69
67157;SHT31;54086;50.126;8.710;2022-09-20T04:24:54;10.59;82.85
67157;SHT31;54086;50.126;8.710;2022-09-20T04:27:46;10.68;82.11
67157;SHT31;54086;50.126;8.710;2022-09-20T04:30:24;10.69;82.15
67157;SHT31;54086;50.126;8.710;2022-09-20T04:38:29;10.52;83.03
67157;SHT31;54086;50.126;8.710;2022-09-20T05:06:15;10.24;86.12
67157;SHT31;54086;50.126;8.710;2022-09-20T05:15:03;10.37;85.29
67157;SHT31;54086;50.126;8.710;2022-09-20T05:20:56;10.44;84.88
67157;SHT31;54086;50.126;8.710;2022-09-20T05:29:19;10.81;82.55
67157;SHT31;54086;50.126;8.710;2022-09-20T05:34:49;11.07;81.93
67157;SHT31;54086;50.126;8.710;2022-09-20T05:40:03;11.24;81.48
67157;SHT31;54086;50.126;8.710;2022-09-20T05:42:44;11.20;81.47
67157;SHT31;54086;50.126;8.710;2022-09-20T06:00:09;11.45;81.16
67157;SHT31;54086;50.126;8.710;2022-09-20T06:02:51;11.44;81.39
67157;SHT31;54086;50.126;8.710;2022-09-20T06:19:24;11.61;81.07
67157;SHT31;54086;50.126;8.710;2022-09-20T06:21:54;11.74;80.74
67157;SHT31;54086;50.126;8.710;2022-09-20T06:24:28;11.65;80.57
67157;SHT31;54086;50.126;8.710;2022-09-20T06:26:57;11.62;80.82
67157;SHT31;54086;50.126;8.710;2022-09-20T06:29:30;11.68;80.87
67157;SHT31;54086;50.126;8.710;2022-09-20T06:31:57;11.72;80.70
67157;SHT31;54086;50.126;8.710;2022-09-20T06:34:22;11.75;80.63
67157;SHT31;54086;50.126;8.710;2022-09-20T06:36:53;11.77;80.33
67157;SHT31;54086;50.126;8.710;2022-09-20T06:42:37;11.83;79.76
67157;SHT31;54086;50.126;8.710;2022-09-20T06:45:03;11.86;79.90
67157;SHT31;54086;50.126;8.710;2022-09-20T06:47:29;11.98;79.83
67157;SHT31;54086;50.126;8.710;2022-09-20T06:49:54;12.03;79.40
67157;SHT31;54086;50.126;8.710;2022-09-20T06:52:21;12.02;79.36
67157;SHT31;54086;50.126;8.710;2022-09-20T06:54:49;11.95;79.37
67157;SHT31;54086;50.126;8.710;2022-09-20T06:57:18;11.92;79.72
67157;SHT31;54086;50.126;8.710;2022-09-20T06:59:44;12.08;79.28
67157;SHT31;54086;50.126;8.710;2022-09-20T07:02:10;12.08;79.13
67157;SHT31;54086;50.126;8.710;2022-09-20T07:04:35;12.17;79.05
67157;SHT31;54086;50.126;8.710;2022-09-20T07:07:04;12.19;78.89
67157;SHT31;54086;50.126;8.710;2022-09-20T07:09:30;12.37;78.56
67157;SHT31;54086;50.126;8.710;2022-09-20T07:11:56;12.37;78.17
67157;SHT31;54086;50.126;8.710;2022-09-20T07:14:23;12.37;77.95
67157;SHT31;54086;50.126;8.710;2022-09-20T07:16:49;12.30;78.16
67157;SHT31;54086;50.126;8.710;2022-09-20T07:19:14;12.44;77.97
67157;SHT31;54086;50.126;8.710;2022-09-20T07:21:40;12.40;77.65
67157;SHT31;54086;50.126;8.710;2022-09-20T07:24:06;12.41;77.68
67157;SHT31;54086;50.126;8.710;2022-09-20T07:26:31;12.50;77.57
67157;SHT31;54086;50.126;8.710;2022-09-20T07:28:58;12.57;77.56
67157;SHT31;54086;50.126;8.710;2022-09-20T07:31:25;12.51;77.62
67157;SHT31;54086;50.126;8.710;2022-09-20T07:33:51;12.53;77.65
67157;SHT31;54086;50.126;8.710;2022-09-20T07:36:17;12.61;77.64
67157;SHT31;54086;50.126;8.710;2022-09-20T07:38:49;12.64;77.54
67157;SHT31;54086;50.126;8.710;2022-09-20T07:41:15;12.60;77.77
67157;SHT31;54086;50.126;8.710;2022-09-20T07:43:43;12.63;77.54
67157;SHT31;54086;50.126;8.710;2022-09-20T07:46:09;12.63;77.69
67157;SHT31;54086;50.126;8.710;2022-09-20T07:48:38;12.58;77.74
67157;SHT31;54086;50.126;8.710;2022-09-20T07:51:10;12.61;77.54
67157;SHT31;54086;50.126;8.710;2022-09-20T07:53:36;12.71;77.29
67157;SHT31;54086;50.126;8.710;2022-09-20T07:56:12;12.84;76.83
67157;SHT31;54086;50.126;8.710;2022-09-20T07:58:38;13.02;75.25
67157;SHT31;54086;50.126;8.710;2022-09-20T08:01:08;13.19;74.88
67157;SHT31;54086;50.126;8.710;2022-09-20T08:03:34;13.25;73.99
67157;SHT31;54086;50.126;8.710;2022-09-20T08:06:05;13.38;73.10
67157;SHT31;54086;50.126;8.710;2022-09-20T08:08:36;13.45;73.12
67157;SHT31;54086;50.126;8.710;2022-09-20T08:11:06;13.59;72.98
67157;SHT31;54086;50.126;8.710;2022-09-20T08:13:40;13.90;71.96
67157;SHT31;54086;50.126;8.710;2022-09-20T08:16:08;13.94;70.83
67157;SHT31;54086;50.126;8.710;2022-09-20T08:18:34;14.00;70.83
67157;SHT31;54086;50.126;8.710;2022-09-20T08:21:04;13.98;71.75
67157;SHT31;54086;50.126;8.710;2022-09-20T08:23:37;13.93;72.08
67157;SHT31;54086;50.126;8.710;2022-09-20T08:26:04;14.38;70.98
67157;SHT31;54086;50.126;8.710;2022-09-20T08:28:30;14.35;70.91
67157;SHT31;54086;50.126;8.710;2022-09-20T08:31:10;14.83;68.58
67157;SHT31;54086;50.126;8.710;2022-09-20T08:33:37;14.54;68.47
67157;SHT31;54086;50.126;8.710;2022-09-20T08:36:07;15.28;67.63
67157;SHT31;54086;50.126;8.710;2022-09-20T08:38:37;15.57;65.58
67157;SHT31;54086;50.126;8.710;2022-09-20T08:41:10;16.23;64.01
67157;SHT31;54086;50.126;8.710;2022-09-20T08:43:57;16.75;62.13
67157;SHT31;54086;50.126;8.710;2022-09-20T08:46:31;16.81;62.77
67157;SHT31;54086;50.126;8.710;2022-09-20T08:48:58;16.59;62.39
67157;SHT31;54086;50.126;8.710;2022-09-20T08:51:28;16.13;63.50
67157;SHT31;54086;50.126;8.710;2022-09-20T08:53:55;16.49;60.13
67157;SHT31;54086;50.126;8.710;2022-09-20T08:56:27;16.22;60.97
67157;SHT31;54086;50.126;8.710;2022-09-20T08:58:53;16.08;61.84
67157;SHT31;54086;50.126;8.710;2022-09-20T09:01:23;15.65;63.37
67157;SHT31;54086;50.126;8.710;2022-09-20T09:03:57;15.77;63.53
67157;SHT31;54086;50.126;8.710;2022-09-20T09:06:26;15.72;63.32
67157;SHT31;54086;50.126;8.710;2022-09-20T09:08:52;15.61;63.44
67157;SHT31;54086;50.126;8.710;2022-09-20T09:11:20;15.58;63.25
67157;SHT31;54086;50.126;8.710;2022-09-20T09:14:02;15.23;64.10
67157;SHT31;54086;50.126;8.710;2022-09-20T09:16:54;15.72;63.47
67157;SHT31;54086;50.126;8.710;2022-09-20T09:19:28;15.82;62.95
67157;SHT31;54086;50.126;8.710;2022-09-20T09:22:01;16.01;60.83
67157;SHT31;54086;50.126;8.710;2022-09-20T09:24:28;16.29;60.75
67157;SHT31;54086;50.126;8.710;2022-09-20T09:27:16;16.23;61.25
67157;SHT31;54086;50.126;8.710;2022-09-20T09:29:53;16.15;60.77
67157;SHT31;54086;50.126;8.710;2022-09-20T09:32:26;16.05;60.95
67157;SHT31;54086;50.126;8.710;2022-09-20T09:34:54;16.49;59.00
67157;SHT31;54086;50.126;8.710;2022-09-20T09:40:15;17.10;57.58
67157;SHT31;54086;50.126;8.710;2022-09-20T09:43:13;17.90;53.49
67157;SHT31;54086;50.126;8.710;2022-09-20T09:45:44;18.28;51.70
67157;SHT31;54086;50.126;8.710;2022-09-20T09:48:27;18.32;51.57
67157;SHT31;54086;50.126;8.710;2022-09-20T09:51:17;17.07;55.33
67157;SHT31;54086;50.126;8.710;2022-09-20T09:53:44;17.05;55.05
67157;SHT31;54086;50.126;8.710;2022-09-20T10:07:11;16.49;56.22
67157;SHT31;54086;50.126;8.710;2022-09-20T10:10:18;17.65;53.04
67157;SHT31;54086;50.126;8.710;2022-09-20T10:23:36;18.17;51.86
67157;SHT31;54086;50.126;8.710;2022-09-20T10:29:02;19.13;49.85
67157;SHT31;54086;50.126;8.710;2022-09-20T10:37:59;18.58;51.87
67157;SHT31;54086;50.126;8.710;2022-09-20T10:40:33;18.72;49.90
67157;SHT31;54086;50.126;8.710;2022-09-20T10:43:40;18.45;51.39
67157;SHT31;54086;50.126;8.710;2022-09-20T10:57:00;17.36;53.57
67157;SHT31;54086;50.126;8.710;2022-09-20T11:00:07;18.62;49.40
67157;SHT31;54086;50.126;8.710;2022-09-20T11:05:55;19.88;46.49
67157;SHT31;54086;50.126;8.710;2022-09-20T11:08:36;19.77;46.77
67157;SHT31;54086;50.126;8.710;2022-09-20T11:11:12;18.41;49.80
67157;SHT31;54086;50.126;8.710;2022-09-20T11:13:55;19.35;47.63
67157;SHT31;54086;50.126;8.710;2022-09-20T11:16:36;19.21;47.23
67157;SHT31;54086;50.126;8.710;2022-09-20T11:19:23;19.64;46.31
67157;SHT31;54086;50.126;8.710;2022-09-20T11:22:10;19.65;45.10
67157;SHT31;54086;50.126;8.710;2022-09-20T11:24:41;19.83;45.28
67157;SHT31;54086;50.126;8.710;2022-09-20T11:27:13;18.30;49.23
67157;SHT31;54086;50.126;8.710;2022-09-20T11:29:44;18.48;48.42
67157;SHT31;54086;50.126;8.710;2022-09-20T11:32:24;17.96;49.36
67157;SHT31;54086;50.126;8.710;2022-09-20T11:34:56;17.96;52.56
67157;SHT31;54086;50.126;8.710;2022-09-20T11:37:29;17.47;54.60
67157;SHT31;54086;50.126;8.710;2022-09-20T11:40:00;17.29;55.67
67157;SHT31;54086;50.126;8.710;2022-09-20T11:42:32;16.70;60.01
67157;SHT31;54086;50.126;8.710;2022-09-20T11:44:59;16.88;57.80
67157;SHT31;54086;50.126;8.710;2022-09-20T11:47:30;16.60;61.15
67157;SHT31;54086;50.126;8.710;2022-09-20T11:58:44;16.09;60.99
67157;SHT31;54086;50.126;8.710;2022-09-20T12:01:12;15.84;62.28
67157;SHT31;54086;50.126;8.710;2022-09-20T12:03:43;15.72;62.33
67157;SHT31;54086;50.126;8.710;2022-09-20T12:06:29;15.86;62.06
67157;SHT31;54086;50.126;8.710;2022-09-20T12:08:59;16.84;58.69
67157;SHT31;54086;50.126;8.710;2022-09-20T12:11:36;17.66;56.09
67157;SHT31;54086;50.126;8.710;2022-09-20T12:14:45;17.76;54.48
67157;SHT31;54086;50.126;8.710;2022-09-20T12:16:51;18.27;53.29
67157;SHT31;54086;50.126;8.710;2022-09-20T12:24:31;18.24;51.94
67157;SHT31;54086;50.126;8.710;2022-09-20T12:32:02;16.59;55.69
67157;SHT31;54086;50.126;8.710;2022-09-20T12:34:34;16.47;55.87
67157;SHT31;54086;50.126;8.710;2022-09-20T12:39:33;16.23;56.18
67157;SHT31;54086;50.126;8.710;2022-09-20T12:42:02;16.12;56.58
67157;SHT31;54086;50.126;8.710;2022-09-20T12:44:39;16.20;56.96
67157;SHT31;54086;50.126;8.710;2022-09-20T12:49:34;16.13;58.11
67157;SHT31;54086;50.126;8.710;2022-09-20T13:16:56;18.69;51.30
67157;SHT31;54086;50.126;8.710;2022-09-20T13:19:26;17.86;51.07
67157;SHT31;54086;50.126;8.710;2022-09-20T13:24:26;18.27;51.91
67157;SHT31;54086;50.126;8.710;2022-09-20T13:26:54;18.71;52.02
67157;SHT31;54086;50.126;8.710;2022-09-20T13:29:40;18.27;52.40
67157;SHT31;54086;50.126;8.710;2022-09-20T13:37:29;18.13;53.25
67157;SHT31;54086;50.126;8.710;2022-09-20T13:39:55;18.48;53.42
67157;SHT31;54086;50.126;8.710;2022-09-20T13:42:21;19.06;52.74
67157;SHT31;54086;50.126;8.710;2022-09-20T13:44:47;20.01;50.74
67157;SHT31;54086;50.126;8.710;2022-09-20T13:47:21;20.18;49.69
67157;SHT31;54086;50.126;8.710;2022-09-20T13:49:47;20.63;48.17
67157;SHT31;54086;50.126;8.710;2022-09-20T13:52:23;19.91;48.78
67157;SHT31;54086;50.126;8.710;2022-09-20T13:54:49;18.61;53.07
67157;SHT31;54086;50.126;8.710;2022-09-20T13:57:25;19.40;52.31
67157;SHT31;54086;50.126;8.710;2022-09-20T13:59:52;19.34;49.77
67157;SHT31;54086;50.126;8.710;2022-09-20T14:02:32;19.50;48.77
67157;SHT31;54086;50.126;8.710;2022-09-20T14:05:02;18.86;50.79
67157;SHT31;54086;50.126;8.710;2022-09-20T14:07:28;18.90;51.10
67157;SHT31;54086;50.126;8.710;2022-09-20T14:09:55;18.15;52.80
67157;SHT31;54086;50.126;8.710;2022-09-20T14:12:22;18.04;53.56
67157;SHT31;54086;50.126;8.710;2022-09-20T14:14:49;17.18;55.38
67157;SHT31;54086;50.126;8.710;2022-09-20T14:17:17;16.64;57.08
67157;SHT31;54086;50.126;8.710;2022-09-20T14:19:46;17.42;56.06
67157;SHT31;54086;50.126;8.710;2022-09-20T14:22:25;17.77;55.15
67157;SHT31;54086;50.126;8.710;2022-09-20T14:25:03;17.98;54.91
67157;SHT31;54086;50.126;8.710;2022-09-20T14:27:42;18.15;54.34
67157;SHT31;54086;50.126;8.710;2022-09-20T14:30:31;17.49;55.74
67157;SHT31;54086;50.126;8.710;2022-09-20T14:32:57;17.56;56.08
67157;SHT31;54086;50.126;8.710;2022-09-20T14:35:23;17.63;55.68
67157;SHT31;54086;50.126;8.710;2022-09-20T14:38:05;17.62;56.01
67157;SHT31;54086;50.126;8.710;2022-09-20T14:43:22;17.50;56.34
67157;SHT31;54086;50.126;8.710;2022-09-20T14:45:53;17.52;56.61
67157;SHT31;54086;50.126;8.710;2022-09-20T14:53:41;17.32;57.33
67157;SHT31;54086;50.126;8.710;2022-09-20T14:56:09;17.01;56.04
67157;SHT31;54086;50.126;8.710;2022-09-20T15:01:29;16.87;55.99
67157;SHT31;54086;50.126;8.710;2022-09-20T15:03:56;16.89;55.32
67157;SHT31;54086;50.126;8.710;2022-09-20T15:06:22;16.88;55.18
67157;SHT31;54086;50.126;8.710;2022-09-20T15:08:48;16.98;55.11
67157;SHT31;54086;50.126;8.710;2022-09-20T15:11:15;16.89;54.94
67157;SHT31;54086;50.126;8.710;2022-09-20T15:13:41;16.68;55.23
67157;SHT31;54086;50.126;8.710;2022-09-20T15:16:06;16.61;55.69
67157;SHT31;54086;50.126;8.710;2022-09-20T15:18:40;16.54;56.01
67157;SHT31;54086;50.126;8.710;2022-09-20T15:21:06;16.52;55.86
67157;SHT31;54086;50.126;8.710;2022-09-20T15:23:32;16.63;55.76
67157;SHT31;54086;50.126;8.710;2022-09-20T15:25:57;16.54;55.84
67157;SHT31;54086;50.126;8.710;2022-09-20T15:28:24;16.70;55.92
67157;SHT31;54086;50.126;8.710;2022-09-20T15:30:51;16.63;55.88
67157;SHT31;54086;50.126;8.710;2022-09-20T15:33:18;16.61;55.82
67157;SHT31;54086;50.126;8.710;2022-09-20T15:35:45;16.53;56.19
67157;SHT31;54086;50.126;8.710;2022-09-20T15:38:15;16.77;56.50
67157;SHT31;54086;50.126;8.710;2022-09-20T15:40:45;16.85;56.81
67157;SHT31;54086;50.126;8.710;2022-09-20T15:43:13;16.89;55.29
67157;SHT31;54086;50.126;8.710;2022-09-20T15:46:18;16.77;55.83
67157;SHT31;54086;50.126;8.710;2022-09-20T15:48:44;16.75;55.55
67157;SHT31;54086;50.126;8.710;2022-09-20T15:51:10;16.85;55.81
67157;SHT31;54086;50.126;8.710;2022-09-20T15:53:57;16.83;55.61
67157;SHT31;54086;50.126;8.710;2022-09-20T15:56:23;16.80;56.07
67157;SHT31;54086;50.126;8.710;2022-09-20T15:58:54;16.50;56.06
67157;SHT31;54086;50.126;8.710;2022-09-20T16:01:24;16.61;56.97
67157;SHT31;54086;50.126;8.710;2022-09-20T16:03:50;16.50;56.72
67157;SHT31;54086;50.126;8.710;2022-09-20T16:06:15;16.34;56.17
67157;SHT31;54086;50.126;8.710;2022-09-20T16:08:42;16.37;56.36
67157;SHT31;54086;50.126;8.710;2022-09-20T16:11:09;16.26;56.53
67157;SHT31;54086;50.126;8.710;2022-09-20T16:13:36;16.33;57.48
67157;SHT31;54086;50.126;8.710;2022-09-20T16:16:07;16.27;57.37
67157;SHT31;54086;50.126;8.710;2022-09-20T16:18:36;16.17;57.19
67157;SHT31;54086;50.126;8.710;2022-09-20T16:21:20;16.20;57.41
67157;SHT31;54086;50.126;8.710;2022-09-20T16:23:55;16.29;57.21
67157;SHT31;54086;50.126;8.710;2022-09-20T16:26:22;16.10;57.86
67157;SHT31;54086;50.126;8.710;2022-09-20T16:28:48;16.08;58.29
67157;SHT31;54086;50.126;8.710;2022-09-20T16:34:03;16.03;58.70
67157;SHT31;54086;50.126;8.710;2022-09-20T16:36:30;15.98;58.62
67157;SHT31;54086;50.126;8.710;2022-09-20T16:38:56;16.02;58.90
67157;SHT31;54086;50.126;8.710;2022-09-20T16:41:24;16.03;58.63
67157;SHT31;54086;50.126;8.710;2022-09-20T16:43:50;16.05;58.73
67157;SHT31;54086;50.126;8.710;2022-09-20T16:46:22;16.10;59.06
67157;SHT31;54086;50.126;8.710;2022-09-20T16:48:52;16.03;59.00
67157;SHT31;54086;50.126;8.710;2022-09-20T16:51:23;16.10;59.04
67157;SHT31;54086;50.126;8.710;2022-09-20T16:53:53;16.10;59.27
67157;SHT31;54086;50.126;8.710;2022-09-20T16:56:22;16.01;59.53
67157;SHT31;54086;50.126;8.710;2022-09-20T16:58:48;15.93;59.91
67157;SHT31;54086;50.126;8.710;2022-09-20T17:01:14;15.91;60.65
67157;SHT31;54086;50.126;8.710;2022-09-20T17:03:40;15.84;61.28
67157;SHT31;54086;50.126;8.710;2022-09-20T17:06:07;15.81;61.44
67157;SHT31;54086;50.126;8.710;2022-09-20T17:08:34;15.79;61.40
67157;SHT31;54086;50.126;8.710;2022-09-20T17:11:03;15.74;61.91
67157;SHT31;54086;50.126;8.710;2022-09-20T17:13:30;15.66;62.24
67157;SHT31;54086;50.126;8.710;2022-09-20T17:16:02;15.64;62.49
67157;SHT31;54086;50.126;8.710;2022-09-20T17:18:28;15.58;62.61
67157;SHT31;54086;50.126;8.710;2022-09-20T17:20:53;15.68;62.11
67157;SHT31;54086;50.126;8.710;2022-09-20T17:23:19;15.55;62.54
67157;SHT31;54086;50.126;8.710;2022-09-20T17:25:45;15.40;62.81
67157;SHT31;54086;50.126;8.710;2022-09-20T17:28:12;15.40;63.43
67157;SHT31;54086;50.126;8.710;2022-09-20T17:30:38;15.41;63.08
67157;SHT31;54086;50.126;8.710;2022-09-20T17:33:05;15.26;63.32
67157;SHT31;54086;50.126;8.710;2022-09-20T17:35:31;15.08;63.82
67157;SHT31;54086;50.126;8.710;2022-09-20T17:37:56;15.07;63.68
67157;SHT31;54086;50.126;8.710;2022-09-20T17:40:22;15.04;63.95
67157;SHT31;54086;50.126;8.710;2022-09-20T17:42:47;15.04;63.93
67157;SHT31;54086;50.126;8.710;2022-09-20T17:45:13;15.02;64.23
67157;SHT31;54086;50.126;8.710;2022-09-20T17:47:38;14.85;64.76
67157;SHT31;54086;50.126;8.710;2022-09-20T17:50:08;14.86;65.11
67157;SHT31;54086;50.126;8.710;2022-09-20T17:52:39;14.80;64.28
67157;SHT31;54086;50.126;8.710;2022-09-20T17:55:05;14.71;64.45
67157;SHT31;54086;50.126;8.710;2022-09-20T17:57:31;14.85;64.32
67157;SHT31;54086;50.126;8.710;2022-09-20T17:59:56;14.83;64.41
67157;SHT31;54086;50.126;8.710;2022-09-20T18:02:23;14.80;64.35
67157;SHT31;54086;50.126;8.710;2022-09-20T18:04:48;14.76;64.41
67157;SHT31;54086;50.126;8.710;2022-09-20T18:07:14;14.76;64.50
67157;SHT31;54086;50.126;8.710;2022-09-20T18:09:39;14.77;64.79
67157;SHT31;54086;50.126;8.710;2022-09-20T18:12:05;14.73;65.19
67157;SHT31;54086;50.126;8.710;2022-09-20T18:14:30;14.79;65.03
67157;SHT31;54086;50.126;8.710;2022-09-20T18:16:58;14.85;64.59
67157;SHT31;54086;50.126;8.710;2022-09-20T18:19:25;14.77;65.08
67157;SHT31;54086;50.126;8.710;2022-09-20T18:21:56;14.68;65.28
67157;SHT31;54086;50.126;8.710;2022-09-20T18:24:22;14.66;64.95
67157;SHT31;54086;50.126;8.710;2022-09-20T18:26:47;14.59;65.28
67157;SHT31;54086;50.126;8.710;2022-09-20T18:29:14;14.49;65.84
67157;SHT31;54086;50.126;8.710;2022-09-20T18:31:52;14.42;66.14
67157;SHT31;54086;50.126;8.710;2022-09-20T18:34:28;14.42;66.21
67157;SHT31;54086;50.126;8.710;2022-09-20T18:36:59;14.32;66.63
67157;SHT31;54086;50.126;8.710;2022-09-20T18:39:27;14.36;66.60
67157;SHT31;54086;50.126;8.710;2022-09-20T18:41:53;14.24;67.01
67157;SHT31;54086;50.126;8.710;2022-09-20T18:44:20;14.31;67.32
67157;SHT31;54086;50.126;8.710;2022-09-20T18:46:45;14.34;67.44
67157;SHT31;54086;50.126;8.710;2022-09-20T18:49:12;14.17;67.99
67157;SHT31;54086;50.126;8.710;2022-09-20T18:51:40;14.20;67.88
67157;SHT31;54086;50.126;8.710;2022-09-20T18:54:07;14.20;67.90
67157;SHT31;54086;50.126;8.710;2022-09-20T18:56:37;14.20;67.93
67157;SHT31;54086;50.126;8.710;2022-09-20T19:09:31;14.03;68.21
67157;SHT31;54086;50.126;8.710;2022-09-20T19:12:05;14.01;67.86
67157;SHT31;54086;50.126;8.710;2022-09-20T19:14:47;14.01;67.62
67157;SHT31;54086;50.126;8.710;2022-09-20T19:17:23;14.03;67.56
67157;SHT31;54086;50.126;8.710;2022-09-20T19:20:03;13.93;67.89
67157;SHT31;54086;50.126;8.710;2022-09-20T19:25:19;13.88;68.71
67157;SHT31;54086;50.126;8.710;2022-09-20T19:27:48;13.87;68.73
67157;SHT31;54086;50.126;8.710;2022-09-20T19:30:14;13.76;69.32
67157;SHT31;54086;50.126;8.710;2022-09-20T19:32:41;13.80;69.54
67157;SHT31;54086;50.126;8.710;2022-09-20T19:35:20;13.83;70.10
67157;SHT31;54086;50.126;8.710;2022-09-20T19:37:56;13.80;70.09
67157;SHT31;54086;50.126;8.710;2022-09-20T19:40:37;13.76;70.38
67157;SHT31;54086;50.126;8.710;2022-09-20T19:43:22;13.78;70.68
67157;SHT31;54086;50.126;8.710;2022-09-20T19:48:54;13.71;70.66
67157;SHT31;54086;50.126;8.710;2022-09-20T19:51:21;13.77;70.57
67157;SHT31;54086;50.126;8.710;2022-09-20T19:53:46;13.76;70.10
67157;SHT31;54086;50.126;8.710;2022-09-20T19:56:26;13.70;70.25
67157;SHT31;54086;50.126;8.710;2022-09-20T19:58:52;13.78;69.73
67157;SHT31;54086;50.126;8.710;2022-09-20T20:01:23;13.81;69.76
67157;SHT31;54086;50.126;8.710;2022-09-20T20:03:49;13.71;69.86
67157;SHT31;54086;50.126;8.710;2022-09-20T20:09:37;13.78;70.44
67157;SHT31;54086;50.126;8.710;2022-09-20T20:12:09;13.71;70.41
67157;SHT31;54086;50.126;8.710;2022-09-20T20:14:50;13.62;70.68
67157;SHT31;54086;50.126;8.710;2022-09-20T20:17:31;13.62;70.61
67157;SHT31;54086;50.126;8.710;2022-09-20T20:20:22;13.60;70.77
67157;SHT31;54086;50.126;8.710;2022-09-20T20:26:08;13.43;70.93
67157;SHT31;54086;50.126;8.710;2022-09-20T20:28:37;13.40;71.56
67157;SHT31;54086;50.126;8.710;2022-09-20T20:31:04;13.45;71.86
67157;SHT31;54086;50.126;8.710;2022-09-20T20:33:30;13.42;71.88
67157;SHT31;54086;50.126;8.710;2022-09-20T20:35:58;13.39;72.03
67157;SHT31;54086;50.126;8.710;2022-09-20T20:38:25;13.39;72.67
67157;SHT31;54086;50.126;8.710;2022-09-20T20:41:01;13.38;72.84
67157;SHT31;54086;50.126;8.710;2022-09-20T20:43:31;13.35;73.28
67157;SHT31;54086;50.126;8.710;2022-09-20T20:45:56;13.25;74.19
67157;SHT31;54086;50.126;8.710;2022-09-20T20:48:22;13.15;75.28
67157;SHT31;54086;50.126;8.710;2022-09-20T20:50:47;13.05;76.44
67157;SHT31;54086;50.126;8.710;2022-09-20T20:53:12;13.05;77.07
67157;SHT31;54086;50.126;8.710;2022-09-20T20:55:38;13.06;77.43
67157;SHT31;54086;50.126;8.710;2022-09-20T20:58:05;12.97;78.20
67157;SHT31;54086;50.126;8.710;2022-09-20T21:00:32;12.81;79.21
67157;SHT31;54086;50.126;8.710;2022-09-20T21:02:58;12.76;79.58
67157;SHT31;54086;50.126;8.710;2022-09-20T21:05:25;12.69;79.91
67157;SHT31;54086;50.126;8.710;2022-09-20T21:07:50;12.68;80.23
67157;SHT31;54086;50.126;8.710;2022-09-20T21:10:16;12.69;80.37
67157;SHT31;54086;50.126;8.710;2022-09-20T21:12:42;12.69;80.45
67157;SHT31;54086;50.126;8.710;2022-09-20T21:15:08;12.57;80.85
67157;SHT31;54086;50.126;8.710;2022-09-20T21:17:33;12.60;80.68
67157;SHT31;54086;50.126;8.710;2022-09-20T21:19:59;12.54;80.91
67157;SHT31;54086;50.126;8.710;2022-09-20T21:22:24;12.51;81.03
67157;SHT31;54086;50.126;8.710;2022-09-20T21:24:50;12.40;81.46
67157;SHT31;54086;50.126;8.710;2022-09-20T21:27:15;12.41;81.42